sensor_id;sensor_type;location;lat;lon;timestamp;pressure;altitude;pressure_sealevel;temperature;humidity
66021;BME280;52789;59.980;30.346;2022-07-29T07:33:14;101399.06;;;20.46;57.74
66021;BME280;52789;59.980;30.346;2022-07-29T07:35:48;101382.63;;;20.47;57.72
66021;BME280;52789;59.980;30.346;2022-07-29T07:38:14;101384.50;;;20.53;57.53
66021;BME280;52789;59.980;30.346;2022-07-29T07:40:41;101375.72;;;20.51;55.86
66021;BME280;52789;59.980;30.346;2022-07-29T07:43:18;101368.66;;;20.50;55.73
66021;BME280;52789;59.980;30.346;2022-07-29T07:46:05;101401.47;;;20.73;55.23
66021;BME280;52789;59.980;30.346;2022-07-29T07:48:48;101380.13;;;20.32;52.40
66021;BME280;52789;59.980;30.346;2022-07-29T07:51:14;101394.91;;;20.43;53.07
66021;BME280;52789;59.980;30.346;2022-07-29T07:53:42;101398.84;;;20.47;53.30
66021;BME280;52789;59.980;30.346;2022-07-29T07:56:32;101392.59;;;20.53;53.91
66021;BME280;52789;59.980;30.346;2022-07-29T08:02:10;101379.13;;;20.91;50.25
66021;BME280;52789;59.980;30.346;2022-07-29T08:04:36;101399.91;;;20.97;50.13
66021;BME280;52789;59.980;30.346;2022-07-29T08:07:26;101397.28;;;20.84;51.47
66021;BME280;52789;59.980;30.346;2022-07-29T08:10:07;101389.25;;;20.51;51.90
66021;BME280;52789;59.980;30.346;2022-07-29T08:12:33;101403.63;;;20.45;52.71
66021;BME280;52789;59.980;30.346;2022-07-29T08:14:59;101408.88;;;20.27;54.35
66021;BME280;52789;59.980;30.346;2022-07-29T08:17:25;101407.81;;;20.15;54.56
66021;BME280;52789;59.980;30.346;2022-07-29T08:23:17;101372.88;;;20.20;54.17
66021;BME280;52789;59.980;30.346;2022-07-29T08:25:44;101397.63;;;20.43;52.68
66021;BME280;52789;59.980;30.346;2022-07-29T08:28:10;101388.66;;;20.42;51.95
66021;BME280;52789;59.980;30.346;2022-07-29T08:30:56;101408.78;;;20.66;52.00
66021;BME280;52789;59.980;30.346;2022-07-29T08:41:18;101419.28;;;21.46;51.76
66021;BME280;52789;59.980;30.346;2022-07-29T08:43:45;101409.03;;;21.48;51.47
66021;BME280;52789;59.980;30.346;2022-07-29T08:49:33;101417.19;;;21.48;52.96
66021;BME280;52789;59.980;30.346;2022-07-29T08:52:56;101413.28;;;21.69;53.99
66021;BME280;52789;59.980;30.346;2022-07-29T08:55:27;101418.59;;;21.82;53.14
66021;BME280;52789;59.980;30.346;2022-07-29T08:57:55;101405.41;;;21.85;53.05
66021;BME280;52789;59.980;30.346;2022-07-29T09:00:21;101413.56;;;21.85;53.14
66021;BME280;52789;59.980;30.346;2022-07-29T09:02:51;101420.97;;;21.96;53.00
66021;BME280;52789;59.980;30.346;2022-07-29T09:05:20;101422.00;;;21.95;52.14
66021;BME280;52789;59.980;30.346;2022-07-29T09:07:50;101426.19;;;21.73;52.12
66021;BME280;52789;59.980;30.346;2022-07-29T09:11:15;101411.44;;;21.62;52.58
66021;BME280;52789;59.980;30.346;2022-07-29T09:13:44;101430.00;;;21.59;52.17
66021;BME280;52789;59.980;30.346;2022-07-29T09:16:09;101427.22;;;21.72;52.04
66021;BME280;52789;59.980;30.346;2022-07-29T09:18:45;101435.09;;;21.80;50.42
66021;BME280;52789;59.980;30.346;2022-07-29T09:21:16;101417.13;;;21.54;51.58
66021;BME280;52789;59.980;30.346;2022-07-29T09:26:33;101411.66;;;21.29;51.53
66021;BME280;52789;59.980;30.346;2022-07-29T09:36:37;101422.00;;;21.46;52.07
66021;BME280;52789;59.980;30.346;2022-07-29T09:39:09;101403.25;;;21.38;51.24
66021;BME280;52789;59.980;30.346;2022-07-29T09:41:56;101423.72;;;21.65;52.88
66021;BME280;52789;59.980;30.346;2022-07-29T09:44:47;101413.22;;;21.75;53.06
66021;BME280;52789;59.980;30.346;2022-07-29T09:47:14;101411.22;;;21.64;53.39
66021;BME280;52789;59.980;30.346;2022-07-29T09:54:01;101377.31;;;21.23;54.95
66021;BME280;52789;59.980;30.346;2022-07-29T10:00:06;101409.22;;;21.53;53.71
66021;BME280;52789;59.980;30.346;2022-07-29T10:09:08;101429.06;;;21.78;54.47
66021;BME280;52789;59.980;30.346;2022-07-29T10:11:37;101432.44;;;21.67;54.13
66021;BME280;52789;59.980;30.346;2022-07-29T10:14:18;101415.53;;;21.47;54.80
66021;BME280;52789;59.980;30.346;2022-07-29T10:16:54;101392.53;;;21.18;53.97
66021;BME280;52789;59.980;30.346;2022-07-29T10:19:20;101411.94;;;21.15;53.71
66021;BME280;52789;59.980;30.346;2022-07-29T10:21:46;101369.97;;;20.92;53.54
66021;BME280;52789;59.980;30.346;2022-07-29T10:27:26;101393.16;;;21.20;52.91
66021;BME280;52789;59.980;30.346;2022-07-29T10:29:53;101432.56;;;21.54;53.15
66021;BME280;52789;59.980;30.346;2022-07-29T10:41:22;101434.28;;;21.48;50.80
66021;BME280;52789;59.980;30.346;2022-07-29T10:43:56;101432.13;;;21.57;50.81
66021;BME280;52789;59.980;30.346;2022-07-29T10:46:22;101428.03;;;21.48;51.28
66021;BME280;52789;59.980;30.346;2022-07-29T10:52:09;101428.16;;;21.84;50.63
66021;BME280;52789;59.980;30.346;2022-07-29T10:54:43;101431.03;;;21.89;49.94
66021;BME280;52789;59.980;30.346;2022-07-29T10:57:28;101431.75;;;21.78;50.10
66021;BME280;52789;59.980;30.346;2022-07-29T11:07:38;101430.22;;;21.89;49.77
66021;BME280;52789;59.980;30.346;2022-07-29T11:15:05;101398.50;;;21.89;51.73
66021;BME280;52789;59.980;30.346;2022-07-29T11:18:07;101432.81;;;22.02;51.36
66021;BME280;52789;59.980;30.346;2022-07-29T11:23:25;101382.75;;;21.80;50.29
66021;BME280;52789;59.980;30.346;2022-07-29T11:28:55;101427.88;;;21.92;51.22
66021;BME280;52789;59.980;30.346;2022-07-29T11:34:22;101436.31;;;21.84;49.75
66021;BME280;52789;59.980;30.346;2022-07-29T11:39:36;101447.81;;;21.48;52.84
66021;BME280;52789;59.980;30.346;2022-07-29T11:47:24;101446.44;;;21.32;52.41
66021;BME280;52789;59.980;30.346;2022-07-29T11:49:51;101437.03;;;21.42;52.56
66021;BME280;52789;59.980;30.346;2022-07-29T11:52:17;101439.34;;;21.31;53.04
66021;BME280;52789;59.980;30.346;2022-07-29T11:54:43;101440.25;;;21.19;52.75
66021;BME280;52789;59.980;30.346;2022-07-29T11:57:09;101404.41;;;20.65;53.64
66021;BME280;52789;59.980;30.346;2022-07-29T11:59:43;101441.91;;;20.62;55.39
66021;BME280;52789;59.980;30.346;2022-07-29T12:02:10;101433.38;;;20.58;54.80
66021;BME280;52789;59.980;30.346;2022-07-29T12:04:55;101441.09;;;20.55;54.64
66021;BME280;52789;59.980;30.346;2022-07-29T12:07:32;101451.72;;;20.56;54.28
66021;BME280;52789;59.980;30.346;2022-07-29T12:09:57;101438.38;;;20.48;55.42
66021;BME280;52789;59.980;30.346;2022-07-29T12:12:23;101446.75;;;20.40;55.51
66021;BME280;52789;59.980;30.346;2022-07-29T12:14:50;101441.31;;;20.27;55.86
66021;BME280;52789;59.980;30.346;2022-07-29T12:19:50;101440.06;;;20.23;55.37
66021;BME280;52789;59.980;30.346;2022-07-29T12:22:25;101416.59;;;19.97;53.57
66021;BME280;52789;59.980;30.346;2022-07-29T12:24:51;101444.47;;;19.97;54.71
66021;BME280;52789;59.980;30.346;2022-07-29T12:27:25;101408.88;;;19.74;57.52
66021;BME280;52789;59.980;30.346;2022-07-29T12:30:04;101440.94;;;19.97;58.41
66021;BME280;52789;59.980;30.346;2022-07-29T12:35:50;101444.03;;;20.00;58.10
66021;BME280;52789;59.980;30.346;2022-07-29T12:38:17;101461.06;;;19.94;57.78
66021;BME280;52789;59.980;30.346;2022-07-29T12:40:44;101458.38;;;19.74;56.84
66021;BME280;52789;59.980;30.346;2022-07-29T12:43:29;101447.56;;;19.68;56.31
66021;BME280;52789;59.980;30.346;2022-07-29T12:46:19;101424.28;;;19.67;58.71
66021;BME280;52789;59.980;30.346;2022-07-29T12:48:53;101440.09;;;19.96;59.17
66021;BME280;52789;59.980;30.346;2022-07-29T12:51:34;101455.47;;;20.16;56.97
66021;BME280;52789;59.980;30.346;2022-07-29T12:54:08;101457.94;;;20.24;55.98
66021;BME280;52789;59.980;30.346;2022-07-29T12:56:37;101454.22;;;20.25;54.26
66021;BME280;52789;59.980;30.346;2022-07-29T12:59:15;101465.88;;;20.25;52.92
66021;BME280;52789;59.980;30.346;2022-07-29T13:01:41;101448.81;;;20.18;50.79
66021;BME280;52789;59.980;30.346;2022-07-29T13:04:06;101440.47;;;20.20;53.08
66021;BME280;52789;59.980;30.346;2022-07-29T13:06:44;101444.22;;;20.38;55.05
66021;BME280;52789;59.980;30.346;2022-07-29T13:09:14;101440.03;;;20.62;55.43
66021;BME280;52789;59.980;30.346;2022-07-29T13:11:47;101454.13;;;20.78;54.93
66021;BME280;52789;59.980;30.346;2022-07-29T13:14:33;101433.91;;;20.80;55.67
66021;BME280;52789;59.980;30.346;2022-07-29T13:17:14;101443.34;;;20.71;56.40
66021;BME280;52789;59.980;30.346;2022-07-29T13:19:48;101419.69;;;20.40;57.15
66021;BME280;52789;59.980;30.346;2022-07-29T13:22:16;101423.22;;;20.40;57.69
66021;BME280;52789;59.980;30.346;2022-07-29T13:27:22;101436.28;;;20.63;55.04
66021;BME280;52789;59.980;30.346;2022-07-29T13:29:48;101441.31;;;20.53;60.30
66021;BME280;52789;59.980;30.346;2022-07-29T13:32:16;101441.31;;;20.53;61.38
66021;BME280;52789;59.980;30.346;2022-07-29T13:34:42;101430.91;;;20.24;61.67
66021;BME280;52789;59.980;30.346;2022-07-29T13:37:09;101442.38;;;20.26;61.76
66021;BME280;52789;59.980;30.346;2022-07-29T13:39:35;101431.94;;;20.23;61.52
66021;BME280;52789;59.980;30.346;2022-07-29T13:42:00;101440.50;;;20.13;61.68
66021;BME280;52789;59.980;30.346;2022-07-29T13:44:26;101429.47;;;20.08;62.24
66021;BME280;52789;59.980;30.346;2022-07-29T13:46:52;101436.34;;;20.04;62.90
66021;BME280;52789;59.980;30.346;2022-07-29T13:49:18;101447.56;;;19.94;63.65
66021;BME280;52789;59.980;30.346;2022-07-29T13:51:43;101435.06;;;19.93;63.82
66021;BME280;52789;59.980;30.346;2022-07-29T13:54:08;101429.69;;;20.26;63.31
66021;BME280;52789;59.980;30.346;2022-07-29T13:56:34;101428.34;;;20.68;60.18
66021;BME280;52789;59.980;30.346;2022-07-29T13:58:59;101439.91;;;20.95;58.12
66021;BME280;52789;59.980;30.346;2022-07-29T14:01:26;101415.28;;;21.03;58.10
66021;BME280;52789;59.980;30.346;2022-07-29T14:03:53;101419.66;;;21.04;57.82
66021;BME280;52789;59.980;30.346;2022-07-29T14:06:18;101425.88;;;21.18;58.18
66021;BME280;52789;59.980;30.346;2022-07-29T14:08:44;101437.09;;;21.28;57.64
66021;BME280;52789;59.980;30.346;2022-07-29T14:11:10;101422.06;;;21.32;57.71
66021;BME280;52789;59.980;30.346;2022-07-29T14:13:35;101422.66;;;21.34;58.32
66021;BME280;52789;59.980;30.346;2022-07-29T14:16:01;101424.63;;;21.14;59.06
66021;BME280;52789;59.980;30.346;2022-07-29T14:18:27;101406.34;;;21.03;60.15
66021;BME280;52789;59.980;30.346;2022-07-29T14:20:53;101432.31;;;21.17;60.79
66021;BME280;52789;59.980;30.346;2022-07-29T14:23:19;101418.84;;;21.04;60.83
66021;BME280;52789;59.980;30.346;2022-07-29T14:25:44;101431.16;;;21.00;60.31
66021;BME280;52789;59.980;30.346;2022-07-29T14:28:10;101425.84;;;20.73;59.70
66021;BME280;52789;59.980;30.346;2022-07-29T14:30:35;101424.22;;;20.53;60.65
66021;BME280;52789;59.980;30.346;2022-07-29T14:33:01;101427.59;;;20.08;61.01
66021;BME280;52789;59.980;30.346;2022-07-29T14:35:29;101381.84;;;19.61;61.60
66021;BME280;52789;59.980;30.346;2022-07-29T14:37:54;101432.19;;;19.75;62.43
66021;BME280;52789;59.980;30.346;2022-07-29T14:40:20;101424.66;;;19.64;63.14
66021;BME280;52789;59.980;30.346;2022-07-29T14:42:45;101424.69;;;19.70;63.55
66021;BME280;52789;59.980;30.346;2022-07-29T14:45:11;101418.88;;;19.80;63.23
66021;BME280;52789;59.980;30.346;2022-07-29T14:47:38;101418.44;;;19.83;63.29
66021;BME280;52789;59.980;30.346;2022-07-29T14:50:04;101420.53;;;19.88;63.42
66021;BME280;52789;59.980;30.346;2022-07-29T14:52:30;101428.84;;;19.93;63.28
66021;BME280;52789;59.980;30.346;2022-07-29T14:54:55;101438.00;;;19.72;62.00
66021;BME280;52789;59.980;30.346;2022-07-29T14:57:21;101438.38;;;19.62;62.93
66021;BME280;52789;59.980;30.346;2022-07-29T14:59:46;101429.66;;;19.54;64.60
66021;BME280;52789;59.980;30.346;2022-07-29T15:02:12;101417.34;;;19.38;64.91
66021;BME280;52789;59.980;30.346;2022-07-29T15:04:37;101420.41;;;19.28;65.84
66021;BME280;52789;59.980;30.346;2022-07-29T15:07:03;101442.84;;;19.35;66.26
66021;BME280;52789;59.980;30.346;2022-07-29T15:09:29;101435.78;;;19.21;66.73
66021;BME280;52789;59.980;30.346;2022-07-29T15:11:54;101440.34;;;19.21;67.11
66021;BME280;52789;59.980;30.346;2022-07-29T15:14:29;101425.63;;;19.36;66.90
66021;BME280;52789;59.980;30.346;2022-07-29T15:16:54;101436.66;;;19.41;66.42
66021;BME280;52789;59.980;30.346;2022-07-29T15:19:19;101420.84;;;19.32;66.05
66021;BME280;52789;59.980;30.346;2022-07-29T15:21:45;101422.53;;;19.46;65.83
66021;BME280;52789;59.980;30.346;2022-07-29T15:24:11;101422.78;;;19.64;65.77
66021;BME280;52789;59.980;30.346;2022-07-29T15:26:36;101410.53;;;19.88;65.04
66021;BME280;52789;59.980;30.346;2022-07-29T15:29:02;101411.16;;;19.90;64.88
66021;BME280;52789;59.980;30.346;2022-07-29T15:31:28;101434.88;;;19.68;64.76
66021;BME280;52789;59.980;30.346;2022-07-29T15:33:53;101423.41;;;19.53;65.66
66021;BME280;52789;59.980;30.346;2022-07-29T15:36:21;101424.41;;;19.52;65.80
66021;BME280;52789;59.980;30.346;2022-07-29T15:38:47;101424.03;;;19.62;66.13
66021;BME280;52789;59.980;30.346;2022-07-29T15:41:15;101423.81;;;19.57;66.87
66021;BME280;52789;59.980;30.346;2022-07-29T15:43:44;101434.38;;;19.52;67.18
66021;BME280;52789;59.980;30.346;2022-07-29T15:46:18;101437.06;;;19.38;67.35
66021;BME280;52789;59.980;30.346;2022-07-29T15:49:04;101426.63;;;19.22;67.81
66021;BME280;52789;59.980;30.346;2022-07-29T15:51:30;101419.50;;;19.08;68.44
66021;BME280;52789;59.980;30.346;2022-07-29T15:53:56;101422.41;;;19.06;69.06
66021;BME280;52789;59.980;30.346;2022-07-29T15:56:22;101430.06;;;18.96;69.90
66021;BME280;52789;59.980;30.346;2022-07-29T15:58:48;101432.34;;;18.99;70.33
66021;BME280;52789;59.980;30.346;2022-07-29T16:01:14;101427.38;;;18.96;70.77
66021;BME280;52789;59.980;30.346;2022-07-29T16:03:41;101434.44;;;18.97;70.93
66021;BME280;52789;59.980;30.346;2022-07-29T16:06:07;101411.56;;;18.86;70.95
66021;BME280;52789;59.980;30.346;2022-07-29T16:08:33;101423.63;;;18.91;71.83
66021;BME280;52789;59.980;30.346;2022-07-29T16:10:58;101425.25;;;18.85;71.72
66021;BME280;52789;59.980;30.346;2022-07-29T16:13:24;101428.34;;;18.82;72.06
66021;BME280;52789;59.980;30.346;2022-07-29T16:15:49;101437.44;;;18.74;72.27
66021;BME280;52789;59.980;30.346;2022-07-29T16:18:14;101439.41;;;18.59;73.06
66021;BME280;52789;59.980;30.346;2022-07-29T16:20:40;101426.22;;;18.43;73.60
66021;BME280;52789;59.980;30.346;2022-07-29T16:23:06;101431.38;;;18.38;73.80
66021;BME280;52789;59.980;30.346;2022-07-29T16:25:39;101431.16;;;18.33;73.93
66021;BME280;52789;59.980;30.346;2022-07-29T16:28:05;101447.31;;;18.33;73.79
66021;BME280;52789;59.980;30.346;2022-07-29T16:30:31;101435.28;;;18.29;73.92
66021;BME280;52789;59.980;30.346;2022-07-29T16:32:56;101445.22;;;18.28;73.71
66021;BME280;52789;59.980;30.346;2022-07-29T16:35:22;101443.59;;;18.34;73.34
66021;BME280;52789;59.980;30.346;2022-07-29T16:37:48;101429.88;;;18.29;74.40
66021;BME280;52789;59.980;30.346;2022-07-29T16:40:13;101436.53;;;18.33;74.31
66021;BME280;52789;59.980;30.346;2022-07-29T16:42:39;101437.00;;;18.43;74.35
66021;BME280;52789;59.980;30.346;2022-07-29T16:45:05;101436.03;;;18.50;73.74
66021;BME280;52789;59.980;30.346;2022-07-29T16:47:30;101432.00;;;18.40;74.30
66021;BME280;52789;59.980;30.346;2022-07-29T16:49:56;101425.72;;;18.26;74.63
66021;BME280;52789;59.980;30.346;2022-07-29T16:52:22;101421.78;;;18.29;74.96
66021;BME280;52789;59.980;30.346;2022-07-29T16:54:47;101440.09;;;18.40;74.65
66021;BME280;52789;59.980;30.346;2022-07-29T16:57:13;101437.16;;;18.35;75.88
66021;BME280;52789;59.980;30.346;2022-07-29T16:59:38;101440.16;;;18.18;75.75
66021;BME280;52789;59.980;30.346;2022-07-29T17:02:04;101434.44;;;18.00;76.62
66021;BME280;52789;59.980;30.346;2022-07-29T17:04:30;101446.25;;;17.99;77.45
66021;BME280;52789;59.980;30.346;2022-07-29T17:06:56;101436.59;;;17.90;76.92
66021;BME280;52789;59.980;30.346;2022-07-29T17:09:22;101417.84;;;17.75;76.52
66021;BME280;52789;59.980;30.346;2022-07-29T17:11:48;101437.44;;;17.90;76.72
66021;BME280;52789;59.980;30.346;2022-07-29T17:14:18;101435.13;;;17.87;76.30
66021;BME280;52789;59.980;30.346;2022-07-29T17:16:44;101427.78;;;17.75;76.05
66021;BME280;52789;59.980;30.346;2022-07-29T17:19:09;101438.50;;;17.68;77.12
66021;BME280;52789;59.980;30.346;2022-07-29T17:21:35;101434.31;;;17.65;77.45
66021;BME280;52789;59.980;30.346;2022-07-29T17:24:00;101428.25;;;17.63;77.35
66021;BME280;52789;59.980;30.346;2022-07-29T17:26:26;101438.03;;;17.64;77.93
66021;BME280;52789;59.980;30.346;2022-07-29T17:28:52;101434.31;;;17.65;77.88
66021;BME280;52789;59.980;30.346;2022-07-29T17:31:18;101438.84;;;17.65;77.92
66021;BME280;52789;59.980;30.346;2022-07-29T17:33:43;101439.69;;;17.65;78.66
66021;BME280;52789;59.980;30.346;2022-07-29T17:36:10;101419.53;;;17.61;78.40
66021;BME280;52789;59.980;30.346;2022-07-29T17:38:48;101425.38;;;17.65;78.50
66021;BME280;52789;59.980;30.346;2022-07-29T17:41:14;101430.59;;;17.67;78.29
66021;BME280;52789;59.980;30.346;2022-07-29T17:43:39;101427.88;;;17.67;77.86
66021;BME280;52789;59.980;30.346;2022-07-29T17:46:06;101436.84;;;17.67;78.47
66021;BME280;52789;59.980;30.346;2022-07-29T17:48:36;101422.59;;;17.58;78.21
66021;BME280;52789;59.980;30.346;2022-07-29T17:51:28;101432.81;;;17.63;78.19
66021;BME280;52789;59.980;30.346;2022-07-29T17:53:54;101432.63;;;17.64;78.14
66021;BME280;52789;59.980;30.346;2022-07-29T17:56:20;101437.75;;;17.59;78.82
66021;BME280;52789;59.980;30.346;2022-07-29T17:58:46;101435.44;;;17.56;78.38
66021;BME280;52789;59.980;30.346;2022-07-29T18:01:13;101419.53;;;17.40;78.65
66021;BME280;52789;59.980;30.346;2022-07-29T18:03:39;101425.81;;;17.47;79.49
66021;BME280;52789;59.980;30.346;2022-07-29T18:06:04;101426.22;;;17.44;79.64
66021;BME280;52789;59.980;30.346;2022-07-29T18:08:30;101428.66;;;17.39;79.88
66021;BME280;52789;59.980;30.346;2022-07-29T18:10:56;101426.97;;;17.38;79.79
66021;BME280;52789;59.980;30.346;2022-07-29T18:13:21;101423.91;;;17.41;80.86
66021;BME280;52789;59.980;30.346;2022-07-29T18:15:51;101426.69;;;17.33;80.08
66021;BME280;52789;59.980;30.346;2022-07-29T18:18:17;101427.47;;;17.27;80.97
66021;BME280;52789;59.980;30.346;2022-07-29T18:20:43;101433.63;;;17.21;81.56
66021;BME280;52789;59.980;30.346;2022-07-29T18:23:09;101425.28;;;17.16;82.21
66021;BME280;52789;59.980;30.346;2022-07-29T18:25:35;101428.16;;;17.14;83.09
66021;BME280;52789;59.980;30.346;2022-07-29T18:28:01;101432.91;;;17.12;83.40
66021;BME280;52789;59.980;30.346;2022-07-29T18:30:27;101442.44;;;17.15;83.79
66021;BME280;52789;59.980;30.346;2022-07-29T18:32:54;101432.06;;;17.12;82.98
66021;BME280;52789;59.980;30.346;2022-07-29T18:35:21;101438.09;;;17.14;84.21
66021;BME280;52789;59.980;30.346;2022-07-29T18:37:46;101430.78;;;17.08;83.46
66021;BME280;52789;59.980;30.346;2022-07-29T18:40:17;101434.94;;;17.10;83.78
66021;BME280;52789;59.980;30.346;2022-07-29T18:42:45;101431.03;;;17.13;83.76
66021;BME280;52789;59.980;30.346;2022-07-29T18:45:11;101437.63;;;17.10;83.26
66021;BME280;52789;59.980;30.346;2022-07-29T18:47:36;101424.72;;;17.06;83.43
66021;BME280;52789;59.980;30.346;2022-07-29T18:50:06;101428.56;;;16.96;83.68
66021;BME280;52789;59.980;30.346;2022-07-29T18:52:32;101435.16;;;16.94;84.61
66021;BME280;52789;59.980;30.346;2022-07-29T18:55:00;101433.66;;;16.91;84.00
66021;BME280;52789;59.980;30.346;2022-07-29T18:57:27;101435.16;;;16.94;84.22
66021;BME280;52789;59.980;30.346;2022-07-29T18:59:52;101431.34;;;16.88;83.91
66021;BME280;52789;59.980;30.346;2022-07-29T19:02:19;101432.38;;;16.87;83.77
66021;BME280;52789;59.980;30.346;2022-07-29T19:04:46;101434.69;;;16.90;83.43
66021;BME280;52789;59.980;30.346;2022-07-29T19:07:14;101432.00;;;16.90;83.07
66021;BME280;52789;59.980;30.346;2022-07-29T19:09:43;101437.38;;;16.90;82.86
66021;BME280;52789;59.980;30.346;2022-07-29T19:12:10;101415.13;;;16.82;82.81
66021;BME280;52789;59.980;30.346;2022-07-29T19:14:35;101429.69;;;16.87;82.03
66021;BME280;52789;59.980;30.346;2022-07-29T19:17:01;101430.59;;;16.94;82.80
66021;BME280;52789;59.980;30.346;2022-07-29T19:19:27;101434.13;;;16.95;82.10
66021;BME280;52789;59.980;30.346;2022-07-29T19:21:52;101442.00;;;16.96;81.36
66021;BME280;52789;59.980;30.346;2022-07-29T19:24:18;101444.69;;;16.96;81.15
66021;BME280;52789;59.980;30.346;2022-07-29T19:26:43;101440.59;;;17.00;81.42
66021;BME280;52789;59.980;30.346;2022-07-29T19:29:14;101440.59;;;17.00;81.23
66021;BME280;52789;59.980;30.346;2022-07-29T19:31:41;101430.88;;;16.99;81.52
66021;BME280;52789;59.980;30.346;2022-07-29T19:34:07;101431.88;;;16.98;81.19
66021;BME280;52789;59.980;30.346;2022-07-29T19:36:34;101432.34;;;17.02;80.79
66021;BME280;52789;59.980;30.346;2022-07-29T19:39:00;101438.56;;;17.02;80.58
66021;BME280;52789;59.980;30.346;2022-07-29T19:41:26;101436.06;;;17.01;80.68
66021;BME280;52789;59.980;30.346;2022-07-29T19:43:52;101431.88;;;16.98;79.68
66021;BME280;52789;59.980;30.346;2022-07-29T19:46:19;101426.50;;;16.98;79.71
66021;BME280;52789;59.980;30.346;2022-07-29T19:48:45;101431.88;;;16.98;79.85
66021;BME280;52789;59.980;30.346;2022-07-29T19:51:10;101431.25;;;16.96;79.37
66021;BME280;52789;59.980;30.346;2022-07-29T19:53:36;101430.97;;;16.91;79.32
66021;BME280;52789;59.980;30.346;2022-07-29T19:56:02;101444.34;;;16.85;78.92
66021;BME280;52789;59.980;30.346;2022-07-29T19:58:27;101430.91;;;16.85;78.89
66021;BME280;52789;59.980;30.346;2022-07-29T20:00:53;101412.34;;;16.75;79.09
66021;BME280;52789;59.980;30.346;2022-07-29T20:03:19;101432.75;;;16.84;78.95
66021;BME280;52789;59.980;30.346;2022-07-29T20:05:45;101435.06;;;16.87;79.01
66021;BME280;52789;59.980;30.346;2022-07-29T20:08:10;101430.16;;;16.91;78.59
66021;BME280;52789;59.980;30.346;2022-07-29T20:10:36;101430.97;;;16.91;78.29
66021;BME280;52789;59.980;30.346;2022-07-29T20:13:02;101418.47;;;16.84;77.99
66021;BME280;52789;59.980;30.346;2022-07-29T20:15:27;101437.38;;;16.90;77.11
66021;BME280;52789;59.980;30.346;2022-07-29T20:17:52;101428.66;;;16.88;77.93
66021;BME280;52789;59.980;30.346;2022-07-29T20:20:18;101436.09;;;16.86;77.26
66021;BME280;52789;59.980;30.346;2022-07-29T20:22:43;101434.63;;;16.84;78.07
66021;BME280;52789;59.980;30.346;2022-07-29T20:25:09;101440.44;;;16.87;77.79
66021;BME280;52789;59.980;30.346;2022-07-29T20:27:36;101425.16;;;16.88;77.66
66021;BME280;52789;59.980;30.346;2022-07-29T20:30:05;101422.25;;;16.89;77.74
66021;BME280;52789;59.980;30.346;2022-07-29T20:32:33;101429.97;;;16.92;76.96
66021;BME280;52789;59.980;30.346;2022-07-29T20:35:00;101432.72;;;16.99;76.69
66021;BME280;52789;59.980;30.346;2022-07-29T20:37:25;101428.19;;;16.99;77.02
66021;BME280;52789;59.980;30.346;2022-07-29T20:39:51;101439.19;;;17.04;76.92
66021;BME280;52789;59.980;30.346;2022-07-29T20:42:17;101433.00;;;17.04;76.78
66021;BME280;52789;59.980;30.346;2022-07-29T20:44:42;101413.16;;;16.90;76.29
66021;BME280;52789;59.980;30.346;2022-07-29T20:47:08;101427.16;;;17.00;76.65
66021;BME280;52789;59.980;30.346;2022-07-29T20:49:34;101430.50;;;17.02;76.02
66021;BME280;52789;59.980;30.346;2022-07-29T20:52:00;101431.31;;;17.03;76.45
66021;BME280;52789;59.980;30.346;2022-07-29T20:54:27;101421.13;;;16.98;76.18
66021;BME280;52789;59.980;30.346;2022-07-29T20:56:52;101391.75;;;16.82;76.12
66021;BME280;52789;59.980;30.346;2022-07-29T20:59:18;101425.84;;;17.11;75.80
66021;BME280;52789;59.980;30.346;2022-07-29T21:01:43;101421.69;;;17.09;76.07
66021;BME280;52789;59.980;30.346;2022-07-29T21:04:09;101396.72;;;17.00;76.03
66021;BME280;52789;59.980;30.346;2022-07-29T21:06:34;101420.00;;;17.08;75.56
66021;BME280;52789;59.980;30.346;2022-07-29T21:09:00;101414.97;;;17.04;75.45
66021;BME280;52789;59.980;30.346;2022-07-29T21:11:26;101371.66;;;16.78;75.53
66021;BME280;52789;59.980;30.346;2022-07-29T21:13:52;101404.41;;;17.03;75.16
66021;BME280;52789;59.980;30.346;2022-07-29T21:16:18;101410.81;;;17.02;74.99
66021;BME280;52789;59.980;30.346;2022-07-29T21:18:45;101425.75;;;17.04;75.07
66021;BME280;52789;59.980;30.346;2022-07-29T21:21:15;101411.84;;;17.01;75.06
66021;BME280;52789;59.980;30.346;2022-07-29T21:23:42;101416.66;;;17.06;74.82
66021;BME280;52789;59.980;30.346;2022-07-29T21:26:08;101413.97;;;17.06;74.57
66021;BME280;52789;59.980;30.346;2022-07-29T21:28:34;101411.28;;;17.06;74.83
66021;BME280;52789;59.980;30.346;2022-07-29T21:31:08;101410.28;;;17.07;74.69
66021;BME280;52789;59.980;30.346;2022-07-29T21:33:34;101412.28;;;17.04;74.17
66021;BME280;52789;59.980;30.346;2022-07-29T21:36:02;101411.75;;;17.09;74.00
66021;BME280;52789;59.980;30.346;2022-07-29T21:38:29;101408.41;;;17.07;73.87
66021;BME280;52789;59.980;30.346;2022-07-29T21:40:55;101412.59;;;17.10;73.51
66021;BME280;52789;59.980;30.346;2022-07-29T21:43:21;101417.31;;;17.08;73.19
66021;BME280;52789;59.980;30.346;2022-07-29T21:45:47;101408.56;;;17.06;73.50
66021;BME280;52789;59.980;30.346;2022-07-29T21:48:15;101413.97;;;17.06;73.76
66021;BME280;52789;59.980;30.346;2022-07-29T21:50:41;101402.28;;;16.98;74.99
66021;BME280;52789;59.980;30.346;2022-07-29T21:53:07;101425.88;;;16.96;75.52
66021;BME280;52789;59.980;30.346;2022-07-29T21:55:34;101414.75;;;16.85;76.70